Hovedside
METAR-TAF:

METAR-TAF

Lufthavner :

Vancouver, Britisk Columbia, Canada

Vancouver internasjonale lufthavn

breddegrad: 49-11N, lengdegrad: 123-10W, høyde over havet: 3 m

Gjeldene værobservasjon

Denne rapporten ble laget for 55 minutter siden, klokken 01:00 UTC
Vind 10 kt fra Vest-nordvest
Temperatur 16°C
Luftfuktighet 68%
Trykk 1019 hPa
Sikt: 48.3 km
Få skyer i en høyde av 25000 ft

METAR: CYVR 260100Z 30010KT 30SM FEW250 16/10 A3009 RMK CS1 SLP190

Tid: 18:55 (01:55 UTC)

Varsel

Denne rapporten ble laget for 2 timer og 17 minutter siden, klokken 23:38 UTC
Varsel gyldig fra 26. klokken 00 UTC til 27. klokken 06 UTC
Vind 12 kt fra Vest-nordvest med vindkast opp mot 22 kt
Sikt: 10 km
Skyfri himmel
Blir
fra 26. klokken 05 UTC til 26. klokken 07 UTC
Vind 6 kt fra Nord-nordvest
Fra 26. klokken 1700 UTC
Vind 8 kt fra Vest
Sikt: 10 km
Skyfri himmel

TAF: CYVR 252338Z 2600/2706 30012G22KT P6SM SKC BECMG 2605/2607 34006KT FM261700 28008KT P6SM SKC RMK NXT FCST BY 260300Z

Værobservasjoner og værvarsel for over 4000 flyplasser (METAR- og TAF-rapporter).

Tilgjengelige stasjoner er representert av de røde og gule prikkene på kartet.

Hold musepekeren over prikken for å se navnet på stasjonen.

Klikk så for å se værobservasjoner og -varsler.

For å forandre kartet kan du klikke på den grønne knappen med svart kryss for å zoome inn, på den grønne knappen med strek for å zoome ut, eller på de grønne pilene for å se tilstøtende kart.


METAR-TAF: